createdAt,value
2022-10-29T00:02:01.787Z,15.17
2022-10-29T00:07:03.342Z,15.14
2022-10-29T00:12:04.953Z,15.08
2022-10-29T00:17:06.392Z,15.03
2022-10-29T00:22:08.136Z,14.97
2022-10-29T00:27:09.728Z,14.94
2022-10-29T00:32:12.002Z,14.93
2022-10-29T00:37:13.617Z,14.90
2022-10-29T00:42:16.532Z,14.86
2022-10-29T00:47:25.979Z,14.80
2022-10-29T00:52:30.987Z,14.75
2022-10-29T00:57:48.554Z,14.61
2022-10-29T01:02:50.828Z,14.44
2022-10-29T01:07:52.294Z,14.31
2022-10-29T01:13:10.438Z,14.26
2022-10-29T01:18:24.538Z,14.26
2022-10-29T01:23:52.930Z,14.30
2022-10-29T01:29:11.930Z,14.30
2022-10-29T01:34:23.795Z,14.27
2022-10-29T01:39:42.498Z,14.29
2022-10-29T01:44:53.435Z,14.23
2022-10-29T01:50:00.299Z,14.24
2022-10-29T01:55:01.870Z,14.23
2022-10-29T02:00:03.249Z,14.21
2022-10-29T02:05:36.232Z,14.11
2022-10-29T02:10:53.065Z,14.05
2022-10-29T02:15:56.640Z,13.93
2022-10-29T02:20:58.083Z,13.81
2022-10-29T02:25:59.713Z,13.65
2022-10-29T02:31:01.472Z,13.53
2022-10-29T02:36:02.988Z,13.39
2022-10-29T02:41:04.528Z,13.23
2022-10-29T02:46:16.008Z,13.12
2022-10-29T02:51:17.987Z,13.01
2022-10-29T02:56:19.448Z,12.93
2022-10-29T03:01:20.991Z,12.83
2022-10-29T03:06:22.524Z,12.68
2022-10-29T03:11:23.954Z,12.57
2022-10-29T03:16:25.404Z,12.45
2022-10-29T03:21:26.928Z,12.32
2022-10-29T03:26:28.459Z,12.15
2022-10-29T03:31:29.981Z,12.01
2022-10-29T03:36:31.551Z,11.95
2022-10-29T03:41:32.984Z,11.91
2022-10-29T03:46:34.525Z,11.83
2022-10-29T03:51:35.977Z,11.77
2022-10-29T03:56:37.391Z,11.66
2022-10-29T04:01:40.105Z,11.61
2022-10-29T04:06:41.660Z,11.61
2022-10-29T04:11:43.109Z,11.54
2022-10-29T04:16:44.545Z,11.48
2022-10-29T04:28:17.887Z,11.26
2022-10-29T04:32:29.045Z,11.11
2022-10-29T04:37:30.475Z,11.02
2022-10-29T04:42:38.997Z,10.99
2022-10-29T04:47:40.427Z,10.91
2022-10-29T04:52:41.901Z,10.84
2022-10-29T04:57:43.372Z,10.78
2022-10-29T05:02:49.780Z,10.70
2022-10-29T05:08:00.372Z,10.67
2022-10-29T05:13:12.092Z,10.67
2022-10-29T05:18:13.517Z,10.65
2022-10-29T05:23:14.954Z,10.60
2022-10-29T05:28:21.143Z,10.53
2022-10-29T05:33:24.253Z,10.44
2022-10-29T05:38:25.695Z,10.36
2022-10-29T05:43:27.701Z,10.30
2022-10-29T05:48:29.168Z,10.23
2022-10-29T05:53:30.623Z,10.19
2022-10-29T05:58:32.458Z,10.13
2022-10-29T06:03:41.751Z,10.10
2022-10-29T06:08:43.365Z,10.05
2022-10-29T06:13:44.862Z,10.04
2022-10-29T06:18:46.303Z,9.99
2022-10-29T06:23:47.865Z,9.93
2022-10-29T06:28:49.641Z,9.94
2022-10-29T06:33:51.315Z,9.90
2022-10-29T06:38:52.763Z,9.90
2022-10-29T06:43:54.448Z,9.88
2022-10-29T06:48:55.974Z,9.90
2022-10-29T06:53:57.476Z,9.94
2022-10-29T06:58:59.264Z,9.97
2022-10-29T07:04:00.821Z,10.00
2022-10-29T07:09:02.495Z,10.07
2022-10-29T07:14:05.771Z,10.19
2022-10-29T07:19:07.964Z,10.46
2022-10-29T07:24:09.675Z,10.82
2022-10-29T07:29:11.338Z,11.04
2022-10-29T07:34:12.908Z,11.10
2022-10-29T07:39:14.391Z,11.07
2022-10-29T07:44:15.936Z,11.23
2022-10-29T07:49:17.451Z,11.57
2022-10-29T07:54:18.944Z,11.99
2022-10-29T07:59:20.649Z,13.87
2022-10-29T08:04:22.234Z,13.09
2022-10-29T08:09:23.734Z,12.60
2022-10-29T08:14:25.219Z,12.34
2022-10-29T08:19:26.831Z,12.38
2022-10-29T08:24:28.448Z,12.40
2022-10-29T08:29:30.077Z,12.43
2022-10-29T08:34:31.733Z,12.45
2022-10-29T08:39:33.260Z,12.69
2022-10-29T08:44:59.655Z,12.80
2022-10-29T08:50:33.164Z,12.95
2022-10-29T08:55:38.423Z,13.06
2022-10-29T09:00:42.949Z,13.15
2022-10-29T09:06:05.593Z,13.33
2022-10-29T09:11:36.661Z,13.56
2022-10-29T09:16:57.370Z,13.79
2022-10-29T09:22:23.487Z,14.17
2022-10-29T09:27:46.745Z,14.17
2022-10-29T09:32:59.763Z,14.36
2022-10-29T09:38:08.895Z,14.50
2022-10-29T09:43:24.049Z,14.75
2022-10-29T09:48:53.251Z,15.25
2022-10-29T09:53:54.888Z,15.77
2022-10-29T09:59:15.257Z,15.87
2022-10-29T10:04:28.564Z,15.86
2022-10-29T10:09:49.511Z,15.93
2022-10-29T10:15:05.972Z,16.00
2022-10-29T10:20:26.936Z,16.04
2022-10-29T10:25:35.826Z,16.26
2022-10-29T10:30:37.308Z,16.39
2022-10-29T10:35:39.378Z,16.51
2022-10-29T10:40:42.136Z,16.78
2022-10-29T10:45:43.640Z,16.80
2022-10-29T10:50:45.296Z,16.93
2022-10-29T10:55:51.669Z,17.03
2022-10-29T11:01:11.284Z,17.38
2022-10-29T11:06:50.985Z,17.58
2022-10-29T11:12:15.452Z,17.55
2022-10-29T11:17:22.656Z,17.62
2022-10-29T11:22:52.742Z,17.58
2022-10-29T11:28:12.882Z,17.59
2022-10-29T11:33:23.661Z,17.68
2022-10-29T11:38:32.906Z,17.93
2022-10-29T11:43:34.536Z,18.07
2022-10-29T11:49:09.977Z,18.37
2022-10-29T11:54:38.804Z,18.70
2022-10-29T12:00:18.179Z,18.78
2022-10-29T12:05:40.219Z,18.81
2022-10-29T12:11:01.499Z,19.02
2022-10-29T12:16:18.247Z,19.13
2022-10-29T12:21:46.560Z,19.41
2022-10-29T12:26:55.350Z,19.51
2022-10-29T12:32:06.037Z,19.64
2022-10-29T12:37:13.117Z,19.90
2022-10-29T12:42:22.083Z,20.33
2022-10-29T12:47:32.675Z,20.34
2022-10-29T12:52:56.066Z,20.39
2022-10-29T12:57:57.693Z,20.48
2022-10-29T13:02:59.440Z,20.43
2022-10-29T13:08:03.833Z,20.11
2022-10-29T13:13:23.363Z,20.10
2022-10-29T13:18:31.550Z,20.06
2022-10-29T13:23:37.383Z,20.10
2022-10-29T13:28:39.034Z,19.94
2022-10-29T13:33:40.429Z,19.95
2022-10-29T13:39:05.032Z,19.85
2022-10-29T13:44:22.894Z,20.05
2022-10-29T13:49:27.704Z,20.11
2022-10-29T13:54:58.294Z,19.94
2022-10-29T14:00:12.000Z,19.81
2022-10-29T14:05:20.972Z,19.72
2022-10-29T14:10:32.359Z,19.61
2022-10-29T14:15:34.626Z,19.58
2022-10-29T14:20:36.117Z,19.60
2022-10-29T14:25:37.670Z,19.65
2022-10-29T14:30:39.212Z,19.63
2022-10-29T14:35:40.729Z,19.61
2022-10-29T14:40:44.874Z,19.59
2022-10-29T14:45:46.756Z,19.61
2022-10-29T14:50:50.681Z,19.52
2022-10-29T14:55:52.456Z,19.41
2022-10-29T15:01:05.762Z,19.25
2022-10-29T15:06:13.651Z,19.07
2022-10-29T15:11:38.433Z,18.94
2022-10-29T15:16:42.434Z,18.79
2022-10-29T15:21:45.005Z,18.68
2022-10-29T15:26:50.672Z,18.53
2022-10-29T15:31:55.838Z,18.37
2022-10-29T15:36:57.817Z,18.27
2022-10-29T15:42:00.383Z,18.16
2022-10-29T15:47:19.594Z,18.01
2022-10-29T15:52:24.184Z,17.81
2022-10-29T15:57:25.719Z,17.66
2022-10-29T16:02:27.336Z,17.59
2022-10-29T16:07:29.152Z,17.40
2022-10-29T16:12:31.027Z,17.26
2022-10-29T16:17:32.500Z,17.13
2022-10-29T16:22:34.027Z,17.01
2022-10-29T16:27:35.512Z,16.90
2022-10-29T16:32:37.038Z,16.78
2022-10-29T16:37:38.521Z,16.67
2022-10-29T16:42:40.120Z,16.55
2022-10-29T16:47:42.364Z,16.40
2022-10-29T16:52:44.270Z,16.22
2022-10-29T16:57:45.757Z,16.05
2022-10-29T17:02:47.290Z,15.87
2022-10-29T17:07:48.782Z,15.71
2022-10-29T17:12:50.273Z,15.71
2022-10-29T17:17:52.183Z,15.45
2022-10-29T17:22:53.674Z,15.36
2022-10-29T17:27:55.638Z,15.26
2022-10-29T17:32:57.564Z,15.22
2022-10-29T17:37:59.175Z,15.20
2022-10-29T17:43:00.890Z,15.20
2022-10-29T17:48:02.475Z,15.23
2022-10-29T17:53:04.077Z,15.19
2022-10-29T17:58:05.561Z,15.17
2022-10-29T18:03:07.104Z,15.11
2022-10-29T18:08:08.598Z,15.08
2022-10-29T18:13:10.110Z,14.98
2022-10-29T18:18:12.310Z,14.91
2022-10-29T18:23:13.949Z,14.87
2022-10-29T18:28:15.538Z,14.77
2022-10-29T18:33:16.987Z,14.63
2022-10-29T18:38:18.490Z,14.54
2022-10-29T18:43:20.089Z,14.43
2022-10-29T18:48:22.371Z,14.38
2022-10-29T18:53:24.106Z,14.29
2022-10-29T18:58:25.664Z,14.19
2022-10-29T19:08:29.712Z,13.93
2022-10-29T19:13:31.915Z,13.83
2022-10-29T19:18:34.310Z,13.71
2022-10-29T19:23:36.320Z,13.67
2022-10-29T19:28:39.144Z,13.60
2022-10-29T19:33:40.953Z,13.56
2022-10-29T19:38:42.674Z,13.45
2022-10-29T19:43:44.759Z,13.40
2022-10-29T19:48:51.395Z,13.41
2022-10-29T19:53:53.108Z,13.39
2022-10-29T19:58:54.628Z,13.40
2022-10-29T20:03:57.927Z,13.39
2022-10-29T20:08:59.464Z,13.34
2022-10-29T20:14:01.374Z,13.26
2022-10-29T20:19:04.614Z,13.21
2022-10-29T20:24:06.225Z,13.13
2022-10-29T20:29:07.680Z,13.13
2022-10-29T20:34:09.955Z,13.22
2022-10-29T20:39:14.027Z,13.40
2022-10-29T20:44:15.483Z,13.40
2022-10-29T20:49:17.131Z,13.72
2022-10-29T20:54:18.715Z,13.84
2022-10-29T20:59:20.181Z,13.88
2022-10-29T21:04:21.606Z,13.92
2022-10-29T21:09:23.076Z,13.89
2022-10-29T21:14:24.557Z,13.87
2022-10-29T21:19:28.035Z,13.85
2022-10-29T21:24:29.459Z,13.85
2022-10-29T21:29:30.932Z,13.78
2022-10-29T21:34:32.395Z,13.67
2022-10-29T21:39:33.973Z,13.50
2022-10-29T21:44:35.404Z,13.31
2022-10-29T21:49:37.076Z,13.18
2022-10-29T21:54:39.133Z,13.07
2022-10-29T21:59:40.573Z,12.98
2022-10-29T22:04:42.020Z,12.89
2022-10-29T22:09:43.455Z,12.77
2022-10-29T22:14:44.957Z,12.71
2022-10-29T22:19:46.387Z,12.66
2022-10-29T22:24:47.843Z,12.58
2022-10-29T22:29:53.494Z,12.51
2022-10-29T22:34:56.032Z,12.42
2022-10-29T22:39:57.463Z,12.30
2022-10-29T22:44:58.891Z,12.20
2022-10-29T22:50:00.930Z,12.15
2022-10-29T22:55:02.467Z,12.12
2022-10-29T23:00:04.260Z,12.10
2022-10-29T23:05:06.105Z,12.05
2022-10-29T23:10:07.813Z,12.08
2022-10-29T23:15:09.451Z,12.20
2022-10-29T23:20:11.066Z,12.22
2022-10-29T23:25:12.552Z,12.18
2022-10-29T23:30:14.123Z,12.16
2022-10-29T23:35:15.731Z,12.11
2022-10-29T23:40:17.200Z,12.05
2022-10-29T23:45:18.700Z,12.02
2022-10-29T23:50:20.259Z,11.98
2022-10-29T23:55:21.804Z,11.94
